sensor_id;sensor_type;location;lat;lon;timestamp;P1;durP1;ratioP1;P2;durP2;ratioP2
24873;SDS011;12945;42.648;23.370;2023-02-01T00:01:53;7.18;;;5.35;;
24873;SDS011;12945;42.648;23.370;2023-02-01T00:04:18;9.35;;;5.70;;
24873;SDS011;12945;42.648;23.370;2023-02-01T00:06:43;10.18;;;5.78;;
24873;SDS011;12945;42.648;23.370;2023-02-01T00:09:09;10.80;;;6.25;;
24873;SDS011;12945;42.648;23.370;2023-02-01T00:11:34;10.07;;;5.53;;
24873;SDS011;12945;42.648;23.370;2023-02-01T00:13:59;10.20;;;5.35;;
24873;SDS011;12945;42.648;23.370;2023-02-01T00:16:26;7.38;;;5.18;;
24873;SDS011;12945;42.648;23.370;2023-02-01T00:18:52;8.88;;;5.68;;
24873;SDS011;12945;42.648;23.370;2023-02-01T00:21:20;8.63;;;6.13;;
24873;SDS011;12945;42.648;23.370;2023-02-01T00:23:46;11.45;;;6.32;;
24873;SDS011;12945;42.648;23.370;2023-02-01T00:26:22;12.57;;;7.13;;
24873;SDS011;12945;42.648;23.370;2023-02-01T00:28:50;10.85;;;6.35;;
24873;SDS011;12945;42.648;23.370;2023-02-01T00:31:16;12.50;;;5.57;;
24873;SDS011;12945;42.648;23.370;2023-02-01T00:33:41;8.82;;;5.18;;
24873;SDS011;12945;42.648;23.370;2023-02-01T00:36:07;10.85;;;5.40;;
24873;SDS011;12945;42.648;23.370;2023-02-01T00:38:33;9.95;;;5.53;;
24873;SDS011;12945;42.648;23.370;2023-02-01T00:41:32;9.18;;;5.38;;
24873;SDS011;12945;42.648;23.370;2023-02-01T00:43:50;8.07;;;5.43;;
24873;SDS011;12945;42.648;23.370;2023-02-01T00:46:16;9.10;;;5.40;;
24873;SDS011;12945;42.648;23.370;2023-02-01T00:48:42;9.70;;;5.20;;
24873;SDS011;12945;42.648;23.370;2023-02-01T00:51:09;9.52;;;5.68;;
24873;SDS011;12945;42.648;23.370;2023-02-01T00:53:35;11.00;;;4.82;;
24873;SDS011;12945;42.648;23.370;2023-02-01T00:56:00;8.75;;;4.63;;
24873;SDS011;12945;42.648;23.370;2023-02-01T00:58:25;8.93;;;4.32;;
24873;SDS011;12945;42.648;23.370;2023-02-01T01:01:14;8.00;;;4.55;;
24873;SDS011;12945;42.648;23.370;2023-02-01T01:03:58;7.07;;;4.55;;
24873;SDS011;12945;42.648;23.370;2023-02-01T01:06:23;6.40;;;4.40;;
24873;SDS011;12945;42.648;23.370;2023-02-01T01:08:50;6.32;;;4.10;;
24873;SDS011;12945;42.648;23.370;2023-02-01T01:11:17;8.85;;;4.20;;
24873;SDS011;12945;42.648;23.370;2023-02-01T01:13:43;6.00;;;3.75;;
24873;SDS011;12945;42.648;23.370;2023-02-01T01:16:09;10.75;;;4.45;;
24873;SDS011;12945;42.648;23.370;2023-02-01T01:18:35;15.10;;;4.70;;
24873;SDS011;12945;42.648;23.370;2023-02-01T01:21:01;10.05;;;4.60;;
24873;SDS011;12945;42.648;23.370;2023-02-01T01:23:26;8.05;;;3.90;;
24873;SDS011;12945;42.648;23.370;2023-02-01T01:25:52;10.43;;;4.50;;
24873;SDS011;12945;42.648;23.370;2023-02-01T01:28:17;9.48;;;4.18;;
24873;SDS011;12945;42.648;23.370;2023-02-01T01:30:43;9.60;;;4.25;;
24873;SDS011;12945;42.648;23.370;2023-02-01T01:33:08;9.05;;;4.13;;
24873;SDS011;12945;42.648;23.370;2023-02-01T01:35:34;9.93;;;4.10;;
24873;SDS011;12945;42.648;23.370;2023-02-01T01:37:59;6.03;;;3.95;;
24873;SDS011;12945;42.648;23.370;2023-02-01T01:40:25;12.10;;;3.95;;
24873;SDS011;12945;42.648;23.370;2023-02-01T01:42:51;8.07;;;4.20;;
24873;SDS011;12945;42.648;23.370;2023-02-01T01:47:48;7.25;;;3.75;;
24873;SDS011;12945;42.648;23.370;2023-02-01T01:50:15;8.73;;;4.03;;
24873;SDS011;12945;42.648;23.370;2023-02-01T01:52:42;8.13;;;3.80;;
24873;SDS011;12945;42.648;23.370;2023-02-01T01:55:08;5.63;;;3.70;;
24873;SDS011;12945;42.648;23.370;2023-02-01T01:57:35;7.93;;;3.63;;
24873;SDS011;12945;42.648;23.370;2023-02-01T02:00:13;5.47;;;3.50;;
24873;SDS011;12945;42.648;23.370;2023-02-01T02:02:38;5.57;;;3.60;;
24873;SDS011;12945;42.648;23.370;2023-02-01T02:05:05;6.80;;;3.53;;
24873;SDS011;12945;42.648;23.370;2023-02-01T02:07:32;6.32;;;3.47;;
24873;SDS011;12945;42.648;23.370;2023-02-01T02:09:59;8.02;;;3.50;;
24873;SDS011;12945;42.648;23.370;2023-02-01T02:12:25;5.70;;;3.63;;
24873;SDS011;12945;42.648;23.370;2023-02-01T02:14:50;7.05;;;3.72;;
24873;SDS011;12945;42.648;23.370;2023-02-01T02:38:30;7.47;;;3.60;;
24873;SDS011;12945;42.648;23.370;2023-02-01T02:43:46;12.25;;;3.58;;
24873;SDS011;12945;42.648;23.370;2023-02-01T02:46:39;7.10;;;3.75;;
24873;SDS011;12945;42.648;23.370;2023-02-01T02:49:49;8.63;;;3.85;;
24873;SDS011;12945;42.648;23.370;2023-02-01T02:52:29;7.13;;;3.50;;
24873;SDS011;12945;42.648;23.370;2023-02-01T02:55:15;11.77;;;3.53;;
24873;SDS011;12945;42.648;23.370;2023-02-01T02:57:41;22.77;;;3.63;;
24873;SDS011;12945;42.648;23.370;2023-02-01T03:00:31;8.60;;;3.28;;
24873;SDS011;12945;42.648;23.370;2023-02-01T03:03:16;5.10;;;3.10;;
24873;SDS011;12945;42.648;23.370;2023-02-01T03:05:59;8.05;;;3.30;;
24873;SDS011;12945;42.648;23.370;2023-02-01T03:08:26;8.55;;;3.20;;
24873;SDS011;12945;42.648;23.370;2023-02-01T03:18:16;5.82;;;2.60;;
24873;SDS011;12945;42.648;23.370;2023-02-01T03:20:43;5.20;;;2.47;;
24873;SDS011;12945;42.648;23.370;2023-02-01T03:23:10;8.63;;;3.33;;
24873;SDS011;12945;42.648;23.370;2023-02-01T03:25:36;8.75;;;2.55;;
24873;SDS011;12945;42.648;23.370;2023-02-01T03:28:04;6.72;;;2.90;;
24873;SDS011;12945;42.648;23.370;2023-02-01T03:30:52;6.15;;;3.13;;
24873;SDS011;12945;42.648;23.370;2023-02-01T03:33:17;6.97;;;2.78;;
24873;SDS011;12945;42.648;23.370;2023-02-01T03:40:58;7.05;;;3.10;;
24873;SDS011;12945;42.648;23.370;2023-02-01T03:43:25;4.80;;;2.55;;
24873;SDS011;12945;42.648;23.370;2023-02-01T03:45:57;10.40;;;2.63;;
24873;SDS011;12945;42.648;23.370;2023-02-01T03:48:23;5.07;;;2.50;;
24873;SDS011;12945;42.648;23.370;2023-02-01T03:50:52;6.45;;;2.70;;
24873;SDS011;12945;42.648;23.370;2023-02-01T03:53:19;3.85;;;2.30;;
24873;SDS011;12945;42.648;23.370;2023-02-01T03:55:45;4.50;;;2.45;;
24873;SDS011;12945;42.648;23.370;2023-02-01T03:58:21;4.90;;;2.50;;
24873;SDS011;12945;42.648;23.370;2023-02-01T04:00:54;4.53;;;2.40;;
24873;SDS011;12945;42.648;23.370;2023-02-01T04:03:19;6.20;;;2.30;;
24873;SDS011;12945;42.648;23.370;2023-02-01T04:05:46;6.68;;;2.45;;
24873;SDS011;12945;42.648;23.370;2023-02-01T04:08:12;6.18;;;2.50;;
24873;SDS011;12945;42.648;23.370;2023-02-01T04:10:37;4.95;;;2.88;;
24873;SDS011;12945;42.648;23.370;2023-02-01T04:13:02;7.90;;;2.60;;
24873;SDS011;12945;42.648;23.370;2023-02-01T04:15:27;3.38;;;2.50;;
24873;SDS011;12945;42.648;23.370;2023-02-01T04:17:53;6.53;;;2.60;;
24873;SDS011;12945;42.648;23.370;2023-02-01T04:20:18;5.35;;;2.83;;
24873;SDS011;12945;42.648;23.370;2023-02-01T04:22:44;6.22;;;3.08;;
24873;SDS011;12945;42.648;23.370;2023-02-01T04:25:09;5.60;;;2.60;;
24873;SDS011;12945;42.648;23.370;2023-02-01T04:27:35;6.55;;;2.92;;
24873;SDS011;12945;42.648;23.370;2023-02-01T04:30:00;6.38;;;2.90;;
24873;SDS011;12945;42.648;23.370;2023-02-01T04:32:26;8.43;;;3.40;;
24873;SDS011;12945;42.648;23.370;2023-02-01T04:34:51;9.18;;;3.28;;
24873;SDS011;12945;42.648;23.370;2023-02-01T04:37:16;6.38;;;3.05;;
24873;SDS011;12945;42.648;23.370;2023-02-01T04:39:41;8.38;;;3.30;;
24873;SDS011;12945;42.648;23.370;2023-02-01T04:42:07;10.00;;;3.88;;
24873;SDS011;12945;42.648;23.370;2023-02-01T04:44:33;11.80;;;3.88;;
24873;SDS011;12945;42.648;23.370;2023-02-01T04:46:58;8.57;;;3.45;;
24873;SDS011;12945;42.648;23.370;2023-02-01T04:49:24;7.32;;;3.83;;
24873;SDS011;12945;42.648;23.370;2023-02-01T04:51:51;7.90;;;3.53;;
24873;SDS011;12945;42.648;23.370;2023-02-01T04:54:17;8.07;;;4.28;;
24873;SDS011;12945;42.648;23.370;2023-02-01T04:56:42;9.38;;;4.60;;
24873;SDS011;12945;42.648;23.370;2023-02-01T04:59:07;7.22;;;4.50;;
24873;SDS011;12945;42.648;23.370;2023-02-01T05:01:32;8.43;;;4.18;;
24873;SDS011;12945;42.648;23.370;2023-02-01T05:03:58;8.13;;;4.78;;
24873;SDS011;12945;42.648;23.370;2023-02-01T05:06:23;9.68;;;4.53;;
24873;SDS011;12945;42.648;23.370;2023-02-01T05:08:48;9.20;;;4.35;;
24873;SDS011;12945;42.648;23.370;2023-02-01T05:11:14;7.70;;;4.35;;
24873;SDS011;12945;42.648;23.370;2023-02-01T05:13:58;8.13;;;4.60;;
24873;SDS011;12945;42.648;23.370;2023-02-01T05:16:23;12.88;;;4.82;;
24873;SDS011;12945;42.648;23.370;2023-02-01T05:18:49;9.45;;;4.55;;
24873;SDS011;12945;42.648;23.370;2023-02-01T05:21:14;7.43;;;4.43;;
24873;SDS011;12945;42.648;23.370;2023-02-01T05:23:40;9.27;;;4.53;;
24873;SDS011;12945;42.648;23.370;2023-02-01T05:26:23;14.95;;;4.60;;
24873;SDS011;12945;42.648;23.370;2023-02-01T05:28:49;10.60;;;5.20;;
24873;SDS011;12945;42.648;23.370;2023-02-01T05:31:14;8.90;;;4.40;;
24873;SDS011;12945;42.648;23.370;2023-02-01T05:33:39;12.13;;;4.88;;
24873;SDS011;12945;42.648;23.370;2023-02-01T05:36:04;11.07;;;4.55;;
24873;SDS011;12945;42.648;23.370;2023-02-01T05:38:30;14.35;;;4.88;;
24873;SDS011;12945;42.648;23.370;2023-02-01T05:40:56;7.88;;;4.55;;
24873;SDS011;12945;42.648;23.370;2023-02-01T05:43:21;7.03;;;4.40;;
24873;SDS011;12945;42.648;23.370;2023-02-01T05:45:47;9.32;;;4.65;;
24873;SDS011;12945;42.648;23.370;2023-02-01T05:48:12;11.02;;;5.10;;
24873;SDS011;12945;42.648;23.370;2023-02-01T05:50:37;8.75;;;4.53;;
24873;SDS011;12945;42.648;23.370;2023-02-01T05:53:02;8.13;;;4.40;;
24873;SDS011;12945;42.648;23.370;2023-02-01T05:55:28;10.35;;;4.78;;
24873;SDS011;12945;42.648;23.370;2023-02-01T05:57:53;11.10;;;4.65;;
24873;SDS011;12945;42.648;23.370;2023-02-01T06:00:18;14.98;;;5.15;;
24873;SDS011;12945;42.648;23.370;2023-02-01T06:02:44;15.98;;;5.85;;
24873;SDS011;12945;42.648;23.370;2023-02-01T06:05:09;8.73;;;4.85;;
24873;SDS011;12945;42.648;23.370;2023-02-01T06:07:34;8.88;;;4.63;;
24873;SDS011;12945;42.648;23.370;2023-02-01T06:10:00;10.15;;;4.55;;
24873;SDS011;12945;42.648;23.370;2023-02-01T06:12:25;10.95;;;5.20;;
24873;SDS011;12945;42.648;23.370;2023-02-01T06:14:53;11.43;;;4.90;;
24873;SDS011;12945;42.648;23.370;2023-02-01T06:17:20;8.48;;;4.20;;
24873;SDS011;12945;42.648;23.370;2023-02-01T06:19:47;8.48;;;4.30;;
24873;SDS011;12945;42.648;23.370;2023-02-01T06:22:13;11.88;;;4.30;;
24873;SDS011;12945;42.648;23.370;2023-02-01T06:24:39;8.07;;;4.05;;
24873;SDS011;12945;42.648;23.370;2023-02-01T06:27:05;8.68;;;4.18;;
24873;SDS011;12945;42.648;23.370;2023-02-01T06:29:31;9.93;;;4.30;;
24873;SDS011;12945;42.648;23.370;2023-02-01T06:31:57;10.27;;;4.20;;
24873;SDS011;12945;42.648;23.370;2023-02-01T06:34:22;10.35;;;3.97;;
24873;SDS011;12945;42.648;23.370;2023-02-01T06:36:48;9.57;;;3.15;;
24873;SDS011;12945;42.648;23.370;2023-02-01T06:39:13;6.15;;;3.47;;
24873;SDS011;12945;42.648;23.370;2023-02-01T06:41:41;10.60;;;4.53;;
24873;SDS011;12945;42.648;23.370;2023-02-01T06:44:07;8.32;;;3.75;;
24873;SDS011;12945;42.648;23.370;2023-02-01T06:46:33;9.55;;;4.07;;
24873;SDS011;12945;42.648;23.370;2023-02-01T06:48:58;7.55;;;3.10;;
24873;SDS011;12945;42.648;23.370;2023-02-01T06:51:25;7.93;;;2.95;;
24873;SDS011;12945;42.648;23.370;2023-02-01T06:53:50;11.40;;;3.70;;
24873;SDS011;12945;42.648;23.370;2023-02-01T06:56:16;8.88;;;3.83;;
24873;SDS011;12945;42.648;23.370;2023-02-01T06:58:41;10.73;;;3.67;;
24873;SDS011;12945;42.648;23.370;2023-02-01T07:01:07;11.55;;;3.08;;
24873;SDS011;12945;42.648;23.370;2023-02-01T07:03:33;4.53;;;2.97;;
24873;SDS011;12945;42.648;23.370;2023-02-01T07:05:58;5.82;;;2.70;;
24873;SDS011;12945;42.648;23.370;2023-02-01T07:08:24;8.50;;;3.45;;
24873;SDS011;12945;42.648;23.370;2023-02-01T07:10:49;8.57;;;4.10;;
24873;SDS011;12945;42.648;23.370;2023-02-01T07:13:15;10.40;;;4.70;;
24873;SDS011;12945;42.648;23.370;2023-02-01T07:15:40;13.65;;;3.63;;
24873;SDS011;12945;42.648;23.370;2023-02-01T07:18:05;9.18;;;3.50;;
24873;SDS011;12945;42.648;23.370;2023-02-01T07:20:31;11.35;;;4.38;;
24873;SDS011;12945;42.648;23.370;2023-02-01T07:22:56;18.83;;;4.80;;
24873;SDS011;12945;42.648;23.370;2023-02-01T07:25:22;8.48;;;3.03;;
24873;SDS011;12945;42.648;23.370;2023-02-01T07:27:47;6.38;;;3.17;;
24873;SDS011;12945;42.648;23.370;2023-02-01T07:30:12;6.28;;;3.05;;
24873;SDS011;12945;42.648;23.370;2023-02-01T07:32:38;12.65;;;3.78;;
24873;SDS011;12945;42.648;23.370;2023-02-01T07:35:03;13.82;;;3.83;;
24873;SDS011;12945;42.648;23.370;2023-02-01T07:37:29;15.40;;;4.40;;
24873;SDS011;12945;42.648;23.370;2023-02-01T07:39:55;8.05;;;3.65;;
24873;SDS011;12945;42.648;23.370;2023-02-01T07:42:20;8.45;;;4.43;;
24873;SDS011;12945;42.648;23.370;2023-02-01T07:44:46;10.07;;;3.47;;
24873;SDS011;12945;42.648;23.370;2023-02-01T07:47:11;7.50;;;2.72;;
24873;SDS011;12945;42.648;23.370;2023-02-01T07:49:36;9.90;;;3.63;;
24873;SDS011;12945;42.648;23.370;2023-02-01T07:52:02;7.93;;;3.08;;
24873;SDS011;12945;42.648;23.370;2023-02-01T07:54:27;8.80;;;3.40;;
24873;SDS011;12945;42.648;23.370;2023-02-01T07:56:52;7.65;;;3.10;;
24873;SDS011;12945;42.648;23.370;2023-02-01T07:59:18;13.25;;;3.40;;
24873;SDS011;12945;42.648;23.370;2023-02-01T08:01:43;7.20;;;2.85;;
24873;SDS011;12945;42.648;23.370;2023-02-01T08:04:09;9.73;;;3.80;;
24873;SDS011;12945;42.648;23.370;2023-02-01T08:06:35;6.97;;;2.88;;
24873;SDS011;12945;42.648;23.370;2023-02-01T08:09:01;13.90;;;3.00;;
24873;SDS011;12945;42.648;23.370;2023-02-01T08:11:26;7.20;;;2.97;;
24873;SDS011;12945;42.648;23.370;2023-02-01T08:13:54;6.28;;;3.35;;
24873;SDS011;12945;42.648;23.370;2023-02-01T08:16:22;8.80;;;3.80;;
24873;SDS011;12945;42.648;23.370;2023-02-01T08:18:48;11.70;;;3.88;;
24873;SDS011;12945;42.648;23.370;2023-02-01T08:21:24;12.40;;;4.53;;
24873;SDS011;12945;42.648;23.370;2023-02-01T08:23:50;17.48;;;4.95;;
24873;SDS011;12945;42.648;23.370;2023-02-01T08:26:17;7.10;;;3.00;;
24873;SDS011;12945;42.648;23.370;2023-02-01T08:28:43;6.07;;;2.88;;
24873;SDS011;12945;42.648;23.370;2023-02-01T08:31:10;8.00;;;3.15;;
24873;SDS011;12945;42.648;23.370;2023-02-01T08:33:35;10.13;;;3.17;;
24873;SDS011;12945;42.648;23.370;2023-02-01T08:36:03;7.93;;;2.28;;
24873;SDS011;12945;42.648;23.370;2023-02-01T08:38:28;8.02;;;2.60;;
24873;SDS011;12945;42.648;23.370;2023-02-01T08:40:54;8.90;;;3.30;;
24873;SDS011;12945;42.648;23.370;2023-02-01T08:43:19;13.10;;;3.20;;
24873;SDS011;12945;42.648;23.370;2023-02-01T08:45:44;9.68;;;3.40;;
24873;SDS011;12945;42.648;23.370;2023-02-01T08:48:10;7.82;;;3.38;;
24873;SDS011;12945;42.648;23.370;2023-02-01T08:50:35;13.18;;;3.53;;
24873;SDS011;12945;42.648;23.370;2023-02-01T08:53:00;8.85;;;2.92;;
24873;SDS011;12945;42.648;23.370;2023-02-01T08:55:26;7.55;;;3.30;;
24873;SDS011;12945;42.648;23.370;2023-02-01T08:57:51;6.50;;;3.20;;
24873;SDS011;12945;42.648;23.370;2023-02-01T09:00:17;9.02;;;3.45;;
24873;SDS011;12945;42.648;23.370;2023-02-01T09:02:45;14.23;;;3.08;;
24873;SDS011;12945;42.648;23.370;2023-02-01T09:05:11;9.50;;;3.47;;
24873;SDS011;12945;42.648;23.370;2023-02-01T09:07:36;12.20;;;3.33;;
24873;SDS011;12945;42.648;23.370;2023-02-01T09:10:02;9.68;;;3.45;;
24873;SDS011;12945;42.648;23.370;2023-02-01T09:12:28;12.52;;;3.38;;
24873;SDS011;12945;42.648;23.370;2023-02-01T09:14:57;6.95;;;3.38;;
24873;SDS011;12945;42.648;23.370;2023-02-01T09:17:25;11.18;;;3.10;;
24873;SDS011;12945;42.648;23.370;2023-02-01T09:19:50;6.05;;;2.70;;
24873;SDS011;12945;42.648;23.370;2023-02-01T09:22:15;12.85;;;2.60;;
24873;SDS011;12945;42.648;23.370;2023-02-01T09:24:41;6.45;;;2.50;;
24873;SDS011;12945;42.648;23.370;2023-02-01T09:27:06;9.82;;;2.40;;
24873;SDS011;12945;42.648;23.370;2023-02-01T09:29:32;8.75;;;2.45;;
24873;SDS011;12945;42.648;23.370;2023-02-01T09:31:57;11.10;;;3.40;;
24873;SDS011;12945;42.648;23.370;2023-02-01T09:34:22;11.20;;;2.70;;
24873;SDS011;12945;42.648;23.370;2023-02-01T09:36:48;10.38;;;2.65;;
24873;SDS011;12945;42.648;23.370;2023-02-01T09:39:13;8.15;;;2.83;;
24873;SDS011;12945;42.648;23.370;2023-02-01T09:46:42;5.35;;;2.22;;
24873;SDS011;12945;42.648;23.370;2023-02-01T09:49:16;4.18;;;2.03;;
24873;SDS011;12945;42.648;23.370;2023-02-01T09:51:44;10.00;;;2.83;;
24873;SDS011;12945;42.648;23.370;2023-02-01T09:54:14;6.75;;;2.95;;
24873;SDS011;12945;42.648;23.370;2023-02-01T09:56:51;7.95;;;2.75;;
24873;SDS011;12945;42.648;23.370;2023-02-01T09:59:34;5.70;;;2.45;;
24873;SDS011;12945;42.648;23.370;2023-02-01T10:02:03;10.38;;;2.78;;
24873;SDS011;12945;42.648;23.370;2023-02-01T10:04:29;6.40;;;2.50;;
24873;SDS011;12945;42.648;23.370;2023-02-01T10:06:57;16.67;;;3.80;;
24873;SDS011;12945;42.648;23.370;2023-02-01T10:09:40;15.02;;;3.70;;
24873;SDS011;12945;42.648;23.370;2023-02-01T10:12:15;6.03;;;2.00;;
24873;SDS011;12945;42.648;23.370;2023-02-01T10:14:51;4.63;;;2.33;;
24873;SDS011;12945;42.648;23.370;2023-02-01T10:27:47;4.75;;;2.38;;
24873;SDS011;12945;42.648;23.370;2023-02-01T10:32:38;7.97;;;3.13;;
24873;SDS011;12945;42.648;23.370;2023-02-01T10:35:21;5.85;;;2.38;;
24873;SDS011;12945;42.648;23.370;2023-02-01T10:37:48;4.25;;;2.13;;
24873;SDS011;12945;42.648;23.370;2023-02-01T10:40:17;11.90;;;2.50;;
24873;SDS011;12945;42.648;23.370;2023-02-01T10:42:46;5.72;;;2.20;;
24873;SDS011;12945;42.648;23.370;2023-02-01T10:45:13;7.20;;;2.25;;
24873;SDS011;12945;42.648;23.370;2023-02-01T10:47:39;7.60;;;2.17;;
24873;SDS011;12945;42.648;23.370;2023-02-01T10:50:19;5.63;;;2.28;;
24873;SDS011;12945;42.648;23.370;2023-02-01T10:53:11;10.38;;;2.80;;
24873;SDS011;12945;42.648;23.370;2023-02-01T10:55:37;7.30;;;2.63;;
24873;SDS011;12945;42.648;23.370;2023-02-01T10:58:07;7.93;;;2.88;;
24873;SDS011;12945;42.648;23.370;2023-02-01T11:03:33;7.35;;;3.47;;
24873;SDS011;12945;42.648;23.370;2023-02-01T11:05:57;6.20;;;2.38;;
24873;SDS011;12945;42.648;23.370;2023-02-01T11:08:22;6.50;;;2.17;;
24873;SDS011;12945;42.648;23.370;2023-02-01T11:10:49;7.00;;;2.53;;
24873;SDS011;12945;42.648;23.370;2023-02-01T11:13:21;8.23;;;2.55;;
24873;SDS011;12945;42.648;23.370;2023-02-01T11:15:54;8.25;;;2.13;;
24873;SDS011;12945;42.648;23.370;2023-02-01T11:18:24;4.57;;;2.40;;
24873;SDS011;12945;42.648;23.370;2023-02-01T11:20:50;8.40;;;2.60;;
24873;SDS011;12945;42.648;23.370;2023-02-01T11:23:19;8.32;;;1.90;;
24873;SDS011;12945;42.648;23.370;2023-02-01T11:25:53;6.25;;;1.92;;
24873;SDS011;12945;42.648;23.370;2023-02-01T11:28:20;5.40;;;2.15;;
24873;SDS011;12945;42.648;23.370;2023-02-01T11:30:46;7.35;;;2.38;;
24873;SDS011;12945;42.648;23.370;2023-02-01T11:33:16;6.25;;;2.40;;
24873;SDS011;12945;42.648;23.370;2023-02-01T11:35:42;4.95;;;2.20;;
24873;SDS011;12945;42.648;23.370;2023-02-01T11:38:19;5.47;;;2.20;;
24873;SDS011;12945;42.648;23.370;2023-02-01T11:40:45;5.97;;;2.17;;
24873;SDS011;12945;42.648;23.370;2023-02-01T11:43:16;5.47;;;2.60;;
24873;SDS011;12945;42.648;23.370;2023-02-01T11:45:52;9.75;;;2.70;;
24873;SDS011;12945;42.648;23.370;2023-02-01T11:48:18;4.82;;;2.22;;
24873;SDS011;12945;42.648;23.370;2023-02-01T11:50:49;4.53;;;1.80;;
24873;SDS011;12945;42.648;23.370;2023-02-01T11:59:23;5.53;;;1.90;;
24873;SDS011;12945;42.648;23.370;2023-02-01T12:01:29;9.40;;;2.45;;
24873;SDS011;12945;42.648;23.370;2023-02-01T12:07:01;4.20;;;1.67;;
24873;SDS011;12945;42.648;23.370;2023-02-01T12:22:00;4.00;;;1.50;;
24873;SDS011;12945;42.648;23.370;2023-02-01T12:29:36;4.07;;;2.03;;
24873;SDS011;12945;42.648;23.370;2023-02-01T12:32:20;6.88;;;2.03;;
24873;SDS011;12945;42.648;23.370;2023-02-01T12:39:49;4.50;;;2.00;;
24873;SDS011;12945;42.648;23.370;2023-02-01T12:44:59;5.32;;;2.00;;
24873;SDS011;12945;42.648;23.370;2023-02-01T12:52:34;5.22;;;2.05;;
24873;SDS011;12945;42.648;23.370;2023-02-01T12:55:06;3.75;;;1.90;;
24873;SDS011;12945;42.648;23.370;2023-02-01T12:57:37;4.28;;;2.28;;
24873;SDS011;12945;42.648;23.370;2023-02-01T13:00:27;7.63;;;2.20;;
24873;SDS011;12945;42.648;23.370;2023-02-01T13:05:22;3.85;;;2.00;;
24873;SDS011;12945;42.648;23.370;2023-02-01T13:07:57;5.30;;;2.20;;
24873;SDS011;12945;42.648;23.370;2023-02-01T13:10:34;3.90;;;1.80;;
24873;SDS011;12945;42.648;23.370;2023-02-01T13:15:42;6.13;;;2.08;;
24873;SDS011;12945;42.648;23.370;2023-02-01T13:18:11;6.95;;;2.10;;
24873;SDS011;12945;42.648;23.370;2023-02-01T13:20:42;7.13;;;2.00;;
24873;SDS011;12945;42.648;23.370;2023-02-01T13:25:51;4.82;;;1.88;;
24873;SDS011;12945;42.648;23.370;2023-02-01T13:30:54;4.25;;;1.52;;
24873;SDS011;12945;42.648;23.370;2023-02-01T13:33:35;5.55;;;1.70;;
24873;SDS011;12945;42.648;23.370;2023-02-01T13:43:53;4.78;;;2.10;;
24873;SDS011;12945;42.648;23.370;2023-02-01T13:46:19;5.55;;;2.20;;
24873;SDS011;12945;42.648;23.370;2023-02-01T13:48:51;4.63;;;2.00;;
24873;SDS011;12945;42.648;23.370;2023-02-01T13:51:28;5.97;;;2.20;;
24873;SDS011;12945;42.648;23.370;2023-02-01T13:53:56;9.25;;;2.58;;
24873;SDS011;12945;42.648;23.370;2023-02-01T13:56:22;3.85;;;1.75;;
24873;SDS011;12945;42.648;23.370;2023-02-01T13:58:49;7.03;;;1.73;;
24873;SDS011;12945;42.648;23.370;2023-02-01T14:03:48;5.43;;;1.67;;
24873;SDS011;12945;42.648;23.370;2023-02-01T14:06:16;5.07;;;1.80;;
24873;SDS011;12945;42.648;23.370;2023-02-01T14:08:41;5.07;;;1.75;;
24873;SDS011;12945;42.648;23.370;2023-02-01T14:11:10;3.17;;;1.90;;
24873;SDS011;12945;42.648;23.370;2023-02-01T14:13:52;7.75;;;1.92;;
24873;SDS011;12945;42.648;23.370;2023-02-01T14:16:18;4.55;;;2.17;;
24873;SDS011;12945;42.648;23.370;2023-02-01T14:29:00;7.93;;;2.50;;
24873;SDS011;12945;42.648;23.370;2023-02-01T14:31:43;5.38;;;2.30;;
24873;SDS011;12945;42.648;23.370;2023-02-01T14:34:17;5.65;;;2.25;;
24873;SDS011;12945;42.648;23.370;2023-02-01T14:36:45;14.07;;;3.20;;
24873;SDS011;12945;42.648;23.370;2023-02-01T14:39:21;3.90;;;2.20;;
24873;SDS011;12945;42.648;23.370;2023-02-01T14:41:48;4.85;;;2.45;;
24873;SDS011;12945;42.648;23.370;2023-02-01T14:44:25;5.78;;;2.45;;
24873;SDS011;12945;42.648;23.370;2023-02-01T14:47:07;9.48;;;2.65;;
24873;SDS011;12945;42.648;23.370;2023-02-01T14:49:34;8.30;;;1.92;;
24873;SDS011;12945;42.648;23.370;2023-02-01T14:52:02;5.22;;;2.45;;
24873;SDS011;12945;42.648;23.370;2023-02-01T14:54:29;5.13;;;2.35;;
24873;SDS011;12945;42.648;23.370;2023-02-01T14:56:55;4.95;;;2.30;;
24873;SDS011;12945;42.648;23.370;2023-02-01T14:59:21;6.88;;;2.60;;
24873;SDS011;12945;42.648;23.370;2023-02-01T15:01:53;4.95;;;2.20;;
24873;SDS011;12945;42.648;23.370;2023-02-01T15:04:19;8.00;;;2.67;;
24873;SDS011;12945;42.648;23.370;2023-02-01T15:07:06;4.88;;;2.50;;
24873;SDS011;12945;42.648;23.370;2023-02-01T15:09:36;5.22;;;2.30;;
24873;SDS011;12945;42.648;23.370;2023-02-01T15:14:44;8.38;;;2.20;;
24873;SDS011;12945;42.648;23.370;2023-02-01T15:19:55;5.20;;;2.40;;
24873;SDS011;12945;42.648;23.370;2023-02-01T15:22:20;4.07;;;2.00;;
24873;SDS011;12945;42.648;23.370;2023-02-01T15:24:51;5.43;;;2.40;;
24873;SDS011;12945;42.648;23.370;2023-02-01T15:27:17;11.68;;;3.00;;
24873;SDS011;12945;42.648;23.370;2023-02-01T15:29:42;5.47;;;2.47;;
24873;SDS011;12945;42.648;23.370;2023-02-01T15:32:15;8.50;;;2.30;;
24873;SDS011;12945;42.648;23.370;2023-02-01T15:34:52;5.40;;;1.80;;
24873;SDS011;12945;42.648;23.370;2023-02-01T15:37:20;4.82;;;2.10;;
24873;SDS011;12945;42.648;23.370;2023-02-01T15:42:53;8.65;;;2.58;;
24873;SDS011;12945;42.648;23.370;2023-02-01T15:45:19;12.57;;;2.45;;
24873;SDS011;12945;42.648;23.370;2023-02-01T15:47:46;4.43;;;2.50;;
24873;SDS011;12945;42.648;23.370;2023-02-01T15:50:12;4.95;;;1.92;;
24873;SDS011;12945;42.648;23.370;2023-02-01T15:52:41;3.78;;;1.90;;
24873;SDS011;12945;42.648;23.370;2023-02-01T15:55:08;5.43;;;2.10;;
24873;SDS011;12945;42.648;23.370;2023-02-01T15:57:35;4.97;;;2.25;;
24873;SDS011;12945;42.648;23.370;2023-02-01T16:00:05;4.95;;;2.10;;
24873;SDS011;12945;42.648;23.370;2023-02-01T16:02:34;3.30;;;1.95;;
24873;SDS011;12945;42.648;23.370;2023-02-01T16:04:59;8.50;;;1.90;;
24873;SDS011;12945;42.648;23.370;2023-02-01T16:07:27;6.70;;;2.50;;
24873;SDS011;12945;42.648;23.370;2023-02-01T16:09:56;6.72;;;2.45;;
24873;SDS011;12945;42.648;23.370;2023-02-01T16:12:30;6.00;;;2.08;;
24873;SDS011;12945;42.648;23.370;2023-02-01T16:14:56;6.78;;;2.15;;
24873;SDS011;12945;42.648;23.370;2023-02-01T16:17:21;8.52;;;2.35;;
24873;SDS011;12945;42.648;23.370;2023-02-01T16:19:46;6.28;;;2.22;;
24873;SDS011;12945;42.648;23.370;2023-02-01T16:22:12;4.30;;;1.90;;
24873;SDS011;12945;42.648;23.370;2023-02-01T16:24:37;4.35;;;1.90;;
24873;SDS011;12945;42.648;23.370;2023-02-01T16:27:03;6.15;;;2.25;;
24873;SDS011;12945;42.648;23.370;2023-02-01T16:29:30;8.07;;;2.22;;
24873;SDS011;12945;42.648;23.370;2023-02-01T16:31:55;4.55;;;2.13;;
24873;SDS011;12945;42.648;23.370;2023-02-01T16:34:20;6.88;;;2.20;;
24873;SDS011;12945;42.648;23.370;2023-02-01T16:36:49;4.00;;;2.10;;
24873;SDS011;12945;42.648;23.370;2023-02-01T16:39:22;7.75;;;2.20;;
24873;SDS011;12945;42.648;23.370;2023-02-01T16:41:47;7.07;;;2.58;;
24873;SDS011;12945;42.648;23.370;2023-02-01T16:44:12;4.32;;;2.60;;
24873;SDS011;12945;42.648;23.370;2023-02-01T16:46:39;6.53;;;2.65;;
24873;SDS011;12945;42.648;23.370;2023-02-01T16:49:05;5.28;;;2.50;;
24873;SDS011;12945;42.648;23.370;2023-02-01T16:51:36;7.75;;;2.88;;
24873;SDS011;12945;42.648;23.370;2023-02-01T16:54:11;11.55;;;2.63;;
24873;SDS011;12945;42.648;23.370;2023-02-01T16:56:36;5.90;;;2.60;;